sensor_id;sensor_type;location;lat;lon;timestamp;temperature;humidity
30371;DHT22;17164;48.590;11.410;2022-07-21T00:02:14;22.90;93.40
30371;DHT22;17164;48.590;11.410;2022-07-21T00:04:40;22.70;95.40
30371;DHT22;17164;48.590;11.410;2022-07-21T00:07:05;22.60;96.30
30371;DHT22;17164;48.590;11.410;2022-07-21T00:09:31;22.60;96.70
30371;DHT22;17164;48.590;11.410;2022-07-21T00:11:57;22.50;96.90
30371;DHT22;17164;48.590;11.410;2022-07-21T00:14:22;22.50;98.10
30371;DHT22;17164;48.590;11.410;2022-07-21T00:16:48;22.50;98.50
30371;DHT22;17164;48.590;11.410;2022-07-21T00:19:13;22.40;99.90
30371;DHT22;17164;48.590;11.410;2022-07-21T00:21:39;22.40;99.90
30371;DHT22;17164;48.590;11.410;2022-07-21T00:24:05;22.30;99.90
30371;DHT22;17164;48.590;11.410;2022-07-21T00:26:31;22.30;99.90
30371;DHT22;17164;48.590;11.410;2022-07-21T00:28:57;22.20;99.90
30371;DHT22;17164;48.590;11.410;2022-07-21T00:31:22;22.20;99.90
30371;DHT22;17164;48.590;11.410;2022-07-21T00:33:48;22.20;99.90
30371;DHT22;17164;48.590;11.410;2022-07-21T00:36:17;22.20;99.90
30371;DHT22;17164;48.590;11.410;2022-07-21T00:38:43;22.20;99.90
30371;DHT22;17164;48.590;11.410;2022-07-21T00:41:08;22.30;99.90
30371;DHT22;17164;48.590;11.410;2022-07-21T00:43:34;22.30;99.90
30371;DHT22;17164;48.590;11.410;2022-07-21T00:46:00;22.30;99.90
30371;DHT22;17164;48.590;11.410;2022-07-21T00:48:25;22.20;99.90
30371;DHT22;17164;48.590;11.410;2022-07-21T00:50:51;22.20;99.90
30371;DHT22;17164;48.590;11.410;2022-07-21T00:53:17;22.20;99.90
30371;DHT22;17164;48.590;11.410;2022-07-21T00:55:43;22.20;99.90
30371;DHT22;17164;48.590;11.410;2022-07-21T00:58:09;22.20;99.90
30371;DHT22;17164;48.590;11.410;2022-07-21T01:00:35;22.20;99.90
30371;DHT22;17164;48.590;11.410;2022-07-21T01:03:01;22.10;99.90
30371;DHT22;17164;48.590;11.410;2022-07-21T01:05:27;22.10;99.90
30371;DHT22;17164;48.590;11.410;2022-07-21T01:07:54;22.10;99.90
30371;DHT22;17164;48.590;11.410;2022-07-21T01:10:22;22.10;99.90
30371;DHT22;17164;48.590;11.410;2022-07-21T01:12:48;22.10;99.90
30371;DHT22;17164;48.590;11.410;2022-07-21T01:15:15;22.00;99.90
30371;DHT22;17164;48.590;11.410;2022-07-21T01:17:42;22.00;99.90
30371;DHT22;17164;48.590;11.410;2022-07-21T01:20:10;22.00;99.90
30371;DHT22;17164;48.590;11.410;2022-07-21T01:22:39;22.00;99.90
30371;DHT22;17164;48.590;11.410;2022-07-21T01:25:06;22.00;99.90
30371;DHT22;17164;48.590;11.410;2022-07-21T01:27:32;22.00;99.90
30371;DHT22;17164;48.590;11.410;2022-07-21T01:29:58;22.00;99.90
30371;DHT22;17164;48.590;11.410;2022-07-21T01:32:24;22.00;99.90
30371;DHT22;17164;48.590;11.410;2022-07-21T01:34:49;22.00;99.90
30371;DHT22;17164;48.590;11.410;2022-07-21T01:37:19;22.10;99.90
30371;DHT22;17164;48.590;11.410;2022-07-21T01:39:47;22.10;99.90
30371;DHT22;17164;48.590;11.410;2022-07-21T01:42:31;22.00;99.90
30371;DHT22;17164;48.590;11.410;2022-07-21T01:44:57;22.00;99.90
30371;DHT22;17164;48.590;11.410;2022-07-21T01:47:23;22.00;99.90
30371;DHT22;17164;48.590;11.410;2022-07-21T01:49:49;22.00;99.90
30371;DHT22;17164;48.590;11.410;2022-07-21T01:52:15;22.00;99.90
30371;DHT22;17164;48.590;11.410;2022-07-21T01:54:41;22.00;99.90
30371;DHT22;17164;48.590;11.410;2022-07-21T01:57:06;22.10;99.90
30371;DHT22;17164;48.590;11.410;2022-07-21T01:59:32;22.10;99.90
30371;DHT22;17164;48.590;11.410;2022-07-21T02:01:58;22.10;99.90
30371;DHT22;17164;48.590;11.410;2022-07-21T02:04:23;22.10;99.90
30371;DHT22;17164;48.590;11.410;2022-07-21T02:06:50;22.10;99.90
30371;DHT22;17164;48.590;11.410;2022-07-21T02:09:16;22.10;99.90
30371;DHT22;17164;48.590;11.410;2022-07-21T02:11:41;22.00;99.90
30371;DHT22;17164;48.590;11.410;2022-07-21T02:14:07;22.00;99.90
30371;DHT22;17164;48.590;11.410;2022-07-21T02:16:33;22.00;99.90
30371;DHT22;17164;48.590;11.410;2022-07-21T02:18:59;22.00;99.90
30371;DHT22;17164;48.590;11.410;2022-07-21T02:21:25;21.90;99.90
30371;DHT22;17164;48.590;11.410;2022-07-21T02:23:51;21.90;99.90
30371;DHT22;17164;48.590;11.410;2022-07-21T02:26:17;21.90;99.90
30371;DHT22;17164;48.590;11.410;2022-07-21T02:28:42;21.80;99.90
30371;DHT22;17164;48.590;11.410;2022-07-21T02:31:08;21.80;99.90
30371;DHT22;17164;48.590;11.410;2022-07-21T02:33:35;21.70;99.90
30371;DHT22;17164;48.590;11.410;2022-07-21T02:36:01;21.70;99.90
30371;DHT22;17164;48.590;11.410;2022-07-21T02:38:26;21.70;99.90
30371;DHT22;17164;48.590;11.410;2022-07-21T02:40:52;21.70;99.90
30371;DHT22;17164;48.590;11.410;2022-07-21T02:43:18;21.60;99.90
30371;DHT22;17164;48.590;11.410;2022-07-21T02:45:43;21.70;99.90
30371;DHT22;17164;48.590;11.410;2022-07-21T02:48:12;21.60;99.90
30371;DHT22;17164;48.590;11.410;2022-07-21T02:50:41;21.60;99.90
30371;DHT22;17164;48.590;11.410;2022-07-21T02:53:09;21.60;99.90
30371;DHT22;17164;48.590;11.410;2022-07-21T02:55:36;21.60;99.90
30371;DHT22;17164;48.590;11.410;2022-07-21T02:58:38;21.60;99.90
30371;DHT22;17164;48.590;11.410;2022-07-21T03:01:03;21.50;99.90
30371;DHT22;17164;48.590;11.410;2022-07-21T03:03:32;21.50;99.90
30371;DHT22;17164;48.590;11.410;2022-07-21T03:05:59;21.50;99.90
30371;DHT22;17164;48.590;11.410;2022-07-21T03:08:26;21.50;99.90
30371;DHT22;17164;48.590;11.410;2022-07-21T03:10:52;21.50;99.90
30371;DHT22;17164;48.590;11.410;2022-07-21T03:13:18;21.50;99.90
30371;DHT22;17164;48.590;11.410;2022-07-21T03:15:44;21.40;99.90
30371;DHT22;17164;48.590;11.410;2022-07-21T03:18:10;21.40;99.90
30371;DHT22;17164;48.590;11.410;2022-07-21T03:20:38;21.40;99.90
30371;DHT22;17164;48.590;11.410;2022-07-21T03:23:04;21.40;99.90
30371;DHT22;17164;48.590;11.410;2022-07-21T03:25:31;21.50;99.90
30371;DHT22;17164;48.590;11.410;2022-07-21T03:27:57;21.50;99.90
30371;DHT22;17164;48.590;11.410;2022-07-21T03:30:23;21.50;99.90
30371;DHT22;17164;48.590;11.410;2022-07-21T03:32:50;21.40;99.90
30371;DHT22;17164;48.590;11.410;2022-07-21T03:35:16;21.40;99.90
30371;DHT22;17164;48.590;11.410;2022-07-21T03:37:44;21.40;99.90
30371;DHT22;17164;48.590;11.410;2022-07-21T03:40:14;21.30;99.90
30371;DHT22;17164;48.590;11.410;2022-07-21T03:42:40;21.30;99.90
30371;DHT22;17164;48.590;11.410;2022-07-21T03:45:07;21.20;99.90
30371;DHT22;17164;48.590;11.410;2022-07-21T03:47:33;21.10;99.90
30371;DHT22;17164;48.590;11.410;2022-07-21T03:49:58;21.00;99.90
30371;DHT22;17164;48.590;11.410;2022-07-21T03:52:24;20.90;99.90
30371;DHT22;17164;48.590;11.410;2022-07-21T03:54:49;20.90;99.90
30371;DHT22;17164;48.590;11.410;2022-07-21T03:57:15;20.80;99.90
30371;DHT22;17164;48.590;11.410;2022-07-21T03:59:41;20.80;99.90
30371;DHT22;17164;48.590;11.410;2022-07-21T04:02:06;20.70;99.90
30371;DHT22;17164;48.590;11.410;2022-07-21T04:04:32;20.60;99.90
30371;DHT22;17164;48.590;11.410;2022-07-21T04:06:58;20.60;99.90
30371;DHT22;17164;48.590;11.410;2022-07-21T04:09:23;20.60;99.90
30371;DHT22;17164;48.590;11.410;2022-07-21T04:11:49;20.60;99.90
30371;DHT22;17164;48.590;11.410;2022-07-21T04:14:14;20.60;99.90
30371;DHT22;17164;48.590;11.410;2022-07-21T04:16:40;20.50;99.90
30371;DHT22;17164;48.590;11.410;2022-07-21T04:19:06;20.50;99.90
30371;DHT22;17164;48.590;11.410;2022-07-21T04:21:32;20.50;99.90
30371;DHT22;17164;48.590;11.410;2022-07-21T04:23:57;20.50;99.90
30371;DHT22;17164;48.590;11.410;2022-07-21T04:26:23;20.50;99.90
30371;DHT22;17164;48.590;11.410;2022-07-21T04:28:48;20.50;99.90
30371;DHT22;17164;48.590;11.410;2022-07-21T04:31:14;20.50;99.90
30371;DHT22;17164;48.590;11.410;2022-07-21T04:33:40;20.50;99.90
30371;DHT22;17164;48.590;11.410;2022-07-21T04:36:05;20.50;99.90
30371;DHT22;17164;48.590;11.410;2022-07-21T04:38:31;20.50;99.90
30371;DHT22;17164;48.590;11.410;2022-07-21T04:40:57;20.50;99.90
30371;DHT22;17164;48.590;11.410;2022-07-21T04:43:22;20.50;99.90
30371;DHT22;17164;48.590;11.410;2022-07-21T04:45:48;20.40;99.90
30371;DHT22;17164;48.590;11.410;2022-07-21T04:48:13;20.40;99.90
30371;DHT22;17164;48.590;11.410;2022-07-21T04:50:39;20.40;99.90
30371;DHT22;17164;48.590;11.410;2022-07-21T04:53:05;20.50;99.90
30371;DHT22;17164;48.590;11.410;2022-07-21T04:55:30;20.50;99.90
30371;DHT22;17164;48.590;11.410;2022-07-21T04:57:56;20.50;99.90
30371;DHT22;17164;48.590;11.410;2022-07-21T05:00:24;20.50;99.90
30371;DHT22;17164;48.590;11.410;2022-07-21T05:02:52;20.50;99.90
30371;DHT22;17164;48.590;11.410;2022-07-21T05:05:18;20.40;99.90
30371;DHT22;17164;48.590;11.410;2022-07-21T05:07:44;20.40;99.90
30371;DHT22;17164;48.590;11.410;2022-07-21T05:10:13;20.40;99.90
30371;DHT22;17164;48.590;11.410;2022-07-21T05:12:39;20.40;99.90
30371;DHT22;17164;48.590;11.410;2022-07-21T05:15:06;20.40;99.90
30371;DHT22;17164;48.590;11.410;2022-07-21T05:17:32;20.40;99.90
30371;DHT22;17164;48.590;11.410;2022-07-21T05:19:59;20.40;99.90
30371;DHT22;17164;48.590;11.410;2022-07-21T05:22:25;20.40;99.90
30371;DHT22;17164;48.590;11.410;2022-07-21T05:24:51;20.30;99.90
30371;DHT22;17164;48.590;11.410;2022-07-21T05:27:16;20.40;99.90
30371;DHT22;17164;48.590;11.410;2022-07-21T05:29:42;20.30;99.90
30371;DHT22;17164;48.590;11.410;2022-07-21T05:32:08;20.30;99.90
30371;DHT22;17164;48.590;11.410;2022-07-21T05:34:33;20.30;99.90
30371;DHT22;17164;48.590;11.410;2022-07-21T05:36:59;20.30;99.90
30371;DHT22;17164;48.590;11.410;2022-07-21T05:39:25;20.30;99.90
30371;DHT22;17164;48.590;11.410;2022-07-21T05:41:50;20.30;99.90
30371;DHT22;17164;48.590;11.410;2022-07-21T05:44:16;20.20;99.90
30371;DHT22;17164;48.590;11.410;2022-07-21T05:46:41;20.20;99.90
30371;DHT22;17164;48.590;11.410;2022-07-21T05:49:07;20.10;99.90
30371;DHT22;17164;48.590;11.410;2022-07-21T05:51:33;20.20;99.90
30371;DHT22;17164;48.590;11.410;2022-07-21T05:53:58;20.10;99.90
30371;DHT22;17164;48.590;11.410;2022-07-21T05:56:24;20.10;99.90
30371;DHT22;17164;48.590;11.410;2022-07-21T05:58:49;20.10;99.90
30371;DHT22;17164;48.590;11.410;2022-07-21T06:01:15;20.20;99.90
30371;DHT22;17164;48.590;11.410;2022-07-21T06:03:45;20.20;99.90
30371;DHT22;17164;48.590;11.410;2022-07-21T06:06:12;20.30;99.90
30371;DHT22;17164;48.590;11.410;2022-07-21T06:08:40;20.30;99.90
30371;DHT22;17164;48.590;11.410;2022-07-21T06:11:07;20.40;99.90
30371;DHT22;17164;48.590;11.410;2022-07-21T06:13:33;20.40;99.90
30371;DHT22;17164;48.590;11.410;2022-07-21T06:15:58;20.40;99.90
30371;DHT22;17164;48.590;11.410;2022-07-21T06:18:24;20.50;99.90
30371;DHT22;17164;48.590;11.410;2022-07-21T06:20:50;20.50;99.90
30371;DHT22;17164;48.590;11.410;2022-07-21T06:23:16;20.60;99.90
30371;DHT22;17164;48.590;11.410;2022-07-21T06:25:41;20.60;99.90
30371;DHT22;17164;48.590;11.410;2022-07-21T06:28:07;20.60;99.90
30371;DHT22;17164;48.590;11.410;2022-07-21T06:30:33;20.60;99.90
30371;DHT22;17164;48.590;11.410;2022-07-21T06:32:58;20.50;99.90
30371;DHT22;17164;48.590;11.410;2022-07-21T06:35:24;20.50;99.90
30371;DHT22;17164;48.590;11.410;2022-07-21T06:37:50;20.60;99.90
30371;DHT22;17164;48.590;11.410;2022-07-21T06:40:15;20.50;99.90
30371;DHT22;17164;48.590;11.410;2022-07-21T06:42:41;20.60;99.90
30371;DHT22;17164;48.590;11.410;2022-07-21T06:45:07;20.50;99.90
30371;DHT22;17164;48.590;11.410;2022-07-21T06:47:33;20.50;99.90
30371;DHT22;17164;48.590;11.410;2022-07-21T06:49:59;20.50;99.90
30371;DHT22;17164;48.590;11.410;2022-07-21T06:52:32;20.50;99.90
30371;DHT22;17164;48.590;11.410;2022-07-21T06:54:58;20.50;99.90
30371;DHT22;17164;48.590;11.410;2022-07-21T06:57:24;20.50;99.90
30371;DHT22;17164;48.590;11.410;2022-07-21T06:59:50;20.50;99.90
30371;DHT22;17164;48.590;11.410;2022-07-21T07:02:15;20.60;99.90
30371;DHT22;17164;48.590;11.410;2022-07-21T07:04:41;20.60;99.90
30371;DHT22;17164;48.590;11.410;2022-07-21T07:07:07;20.60;99.90
30371;DHT22;17164;48.590;11.410;2022-07-21T07:09:32;20.70;99.90
30371;DHT22;17164;48.590;11.410;2022-07-21T07:11:58;20.70;99.90
30371;DHT22;17164;48.590;11.410;2022-07-21T07:14:29;20.70;99.90
30371;DHT22;17164;48.590;11.410;2022-07-21T07:16:56;20.70;99.90
30371;DHT22;17164;48.590;11.410;2022-07-21T07:19:22;20.80;99.90
30371;DHT22;17164;48.590;11.410;2022-07-21T07:21:48;20.80;99.90
30371;DHT22;17164;48.590;11.410;2022-07-21T07:24:13;20.90;99.90
30371;DHT22;17164;48.590;11.410;2022-07-21T07:26:39;20.90;99.90
30371;DHT22;17164;48.590;11.410;2022-07-21T07:29:05;21.00;99.90
30371;DHT22;17164;48.590;11.410;2022-07-21T07:31:31;21.00;99.90
30371;DHT22;17164;48.590;11.410;2022-07-21T07:33:56;21.10;99.90
30371;DHT22;17164;48.590;11.410;2022-07-21T07:36:23;21.20;99.90
30371;DHT22;17164;48.590;11.410;2022-07-21T07:38:50;21.30;99.90
30371;DHT22;17164;48.590;11.410;2022-07-21T07:41:18;21.40;99.90
30371;DHT22;17164;48.590;11.410;2022-07-21T07:43:43;21.40;99.90
30371;DHT22;17164;48.590;11.410;2022-07-21T07:46:09;21.40;99.90
30371;DHT22;17164;48.590;11.410;2022-07-21T07:48:37;21.50;99.90
30371;DHT22;17164;48.590;11.410;2022-07-21T07:51:03;21.50;99.90
30371;DHT22;17164;48.590;11.410;2022-07-21T07:53:29;21.50;99.90
30371;DHT22;17164;48.590;11.410;2022-07-21T07:55:55;21.50;99.90
30371;DHT22;17164;48.590;11.410;2022-07-21T07:58:21;21.50;99.90
30371;DHT22;17164;48.590;11.410;2022-07-21T08:00:46;21.50;99.90
30371;DHT22;17164;48.590;11.410;2022-07-21T08:03:12;21.50;99.90
30371;DHT22;17164;48.590;11.410;2022-07-21T08:05:38;21.40;99.90
30371;DHT22;17164;48.590;11.410;2022-07-21T08:08:04;21.40;99.90
30371;DHT22;17164;48.590;11.410;2022-07-21T08:10:30;21.30;99.90
30371;DHT22;17164;48.590;11.410;2022-07-21T08:12:55;21.30;99.90
30371;DHT22;17164;48.590;11.410;2022-07-21T08:15:21;21.30;99.90
30371;DHT22;17164;48.590;11.410;2022-07-21T08:17:46;21.30;99.90
30371;DHT22;17164;48.590;11.410;2022-07-21T08:20:12;21.20;99.90
30371;DHT22;17164;48.590;11.410;2022-07-21T08:22:38;21.20;99.90
30371;DHT22;17164;48.590;11.410;2022-07-21T08:25:04;21.20;99.90
30371;DHT22;17164;48.590;11.410;2022-07-21T08:27:29;21.20;99.90
30371;DHT22;17164;48.590;11.410;2022-07-21T08:29:56;21.10;99.90
30371;DHT22;17164;48.590;11.410;2022-07-21T08:32:22;21.10;99.90
30371;DHT22;17164;48.590;11.410;2022-07-21T08:34:48;21.10;99.90
30371;DHT22;17164;48.590;11.410;2022-07-21T08:37:14;21.10;99.90
30371;DHT22;17164;48.590;11.410;2022-07-21T08:39:39;21.00;99.90
30371;DHT22;17164;48.590;11.410;2022-07-21T08:42:08;21.00;99.90
30371;DHT22;17164;48.590;11.410;2022-07-21T08:44:34;21.00;99.90
30371;DHT22;17164;48.590;11.410;2022-07-21T08:47:00;21.00;99.90
30371;DHT22;17164;48.590;11.410;2022-07-21T08:49:26;21.00;99.90
30371;DHT22;17164;48.590;11.410;2022-07-21T08:51:52;21.00;99.90
30371;DHT22;17164;48.590;11.410;2022-07-21T08:54:22;21.00;99.90
30371;DHT22;17164;48.590;11.410;2022-07-21T08:56:48;21.10;99.90
30371;DHT22;17164;48.590;11.410;2022-07-21T08:59:14;21.10;99.90
30371;DHT22;17164;48.590;11.410;2022-07-21T09:01:40;21.10;99.90
30371;DHT22;17164;48.590;11.410;2022-07-21T09:04:27;21.10;99.90
30371;DHT22;17164;48.590;11.410;2022-07-21T09:07:05;21.10;99.90
30371;DHT22;17164;48.590;11.410;2022-07-21T09:09:33;21.10;99.90
30371;DHT22;17164;48.590;11.410;2022-07-21T09:12:02;21.10;99.90
30371;DHT22;17164;48.590;11.410;2022-07-21T09:14:32;21.10;99.90
30371;DHT22;17164;48.590;11.410;2022-07-21T09:17:00;21.10;99.90
30371;DHT22;17164;48.590;11.410;2022-07-21T09:19:31;21.10;99.90
30371;DHT22;17164;48.590;11.410;2022-07-21T09:22:02;21.00;99.90
30371;DHT22;17164;48.590;11.410;2022-07-21T09:24:36;21.00;99.90
30371;DHT22;17164;48.590;11.410;2022-07-21T09:32:15;20.90;99.90
30371;DHT22;17164;48.590;11.410;2022-07-21T09:34:41;20.80;99.90
30371;DHT22;17164;48.590;11.410;2022-07-21T09:37:08;20.70;99.90
30371;DHT22;17164;48.590;11.410;2022-07-21T09:42:36;20.70;99.90
30371;DHT22;17164;48.590;11.410;2022-07-21T09:45:07;20.70;99.90
30371;DHT22;17164;48.590;11.410;2022-07-21T09:47:35;20.80;99.90
30371;DHT22;17164;48.590;11.410;2022-07-21T09:50:04;20.80;99.90
30371;DHT22;17164;48.590;11.410;2022-07-21T09:52:31;20.90;99.90
30371;DHT22;17164;48.590;11.410;2022-07-21T09:55:00;20.90;99.90
30371;DHT22;17164;48.590;11.410;2022-07-21T09:57:26;20.90;99.90
30371;DHT22;17164;48.590;11.410;2022-07-21T09:59:53;20.90;99.90
30371;DHT22;17164;48.590;11.410;2022-07-21T10:02:23;20.90;99.90
30371;DHT22;17164;48.590;11.410;2022-07-21T10:07:23;21.00;99.90
30371;DHT22;17164;48.590;11.410;2022-07-21T10:09:49;21.00;99.90
30371;DHT22;17164;48.590;11.410;2022-07-21T10:12:16;21.00;99.90
30371;DHT22;17164;48.590;11.410;2022-07-21T10:14:43;21.00;99.90
30371;DHT22;17164;48.590;11.410;2022-07-21T10:17:09;21.00;99.90
30371;DHT22;17164;48.590;11.410;2022-07-21T10:19:49;21.00;99.90
30371;DHT22;17164;48.590;11.410;2022-07-21T10:25:15;21.00;99.90
30371;DHT22;17164;48.590;11.410;2022-07-21T10:30:49;21.00;99.90
30371;DHT22;17164;48.590;11.410;2022-07-21T10:33:17;21.00;99.90
30371;DHT22;17164;48.590;11.410;2022-07-21T10:35:45;21.00;99.90
30371;DHT22;17164;48.590;11.410;2022-07-21T10:38:31;21.10;99.90
30371;DHT22;17164;48.590;11.410;2022-07-21T10:40:58;21.10;99.90
30371;DHT22;17164;48.590;11.410;2022-07-21T10:45:51;21.20;99.90
30371;DHT22;17164;48.590;11.410;2022-07-21T10:51:12;21.20;99.90
30371;DHT22;17164;48.590;11.410;2022-07-21T10:53:38;21.30;99.90
30371;DHT22;17164;48.590;11.410;2022-07-21T10:56:06;21.30;99.90
30371;DHT22;17164;48.590;11.410;2022-07-21T10:58:40;21.40;99.90
30371;DHT22;17164;48.590;11.410;2022-07-21T11:01:20;21.50;99.90
30371;DHT22;17164;48.590;11.410;2022-07-21T11:03:46;21.50;99.90
30371;DHT22;17164;48.590;11.410;2022-07-21T11:06:32;21.60;99.90
30371;DHT22;17164;48.590;11.410;2022-07-21T11:11:31;21.80;99.90
30371;DHT22;17164;48.590;11.410;2022-07-21T11:21:59;22.10;99.90
30371;DHT22;17164;48.590;11.410;2022-07-21T11:24:26;22.10;99.90
30371;DHT22;17164;48.590;11.410;2022-07-21T11:26:59;22.20;99.90
30371;DHT22;17164;48.590;11.410;2022-07-21T11:29:28;22.30;99.90
30371;DHT22;17164;48.590;11.410;2022-07-21T11:31:55;22.40;99.90
30371;DHT22;17164;48.590;11.410;2022-07-21T11:34:23;22.50;99.90
30371;DHT22;17164;48.590;11.410;2022-07-21T11:36:58;22.50;99.90
30371;DHT22;17164;48.590;11.410;2022-07-21T11:39:25;22.60;99.90
30371;DHT22;17164;48.590;11.410;2022-07-21T11:41:51;22.70;99.90
30371;DHT22;17164;48.590;11.410;2022-07-21T11:44:42;22.90;99.90
30371;DHT22;17164;48.590;11.410;2022-07-21T11:47:12;23.10;99.90
30371;DHT22;17164;48.590;11.410;2022-07-21T11:49:39;23.20;99.90
30371;DHT22;17164;48.590;11.410;2022-07-21T11:52:08;23.20;99.90
30371;DHT22;17164;48.590;11.410;2022-07-21T11:54:36;23.20;99.90
30371;DHT22;17164;48.590;11.410;2022-07-21T11:57:05;23.30;99.90
30371;DHT22;17164;48.590;11.410;2022-07-21T11:59:32;23.40;99.90
30371;DHT22;17164;48.590;11.410;2022-07-21T12:10:01;24.00;99.90
30371;DHT22;17164;48.590;11.410;2022-07-21T12:15:13;24.40;99.90
30371;DHT22;17164;48.590;11.410;2022-07-21T12:17:42;24.50;99.90
30371;DHT22;17164;48.590;11.410;2022-07-21T12:20:08;24.70;99.90
30371;DHT22;17164;48.590;11.410;2022-07-21T12:22:45;24.80;99.90
30371;DHT22;17164;48.590;11.410;2022-07-21T12:25:17;24.80;99.90
30371;DHT22;17164;48.590;11.410;2022-07-21T12:27:47;24.80;99.90
30371;DHT22;17164;48.590;11.410;2022-07-21T12:30:42;24.80;99.90
30371;DHT22;17164;48.590;11.410;2022-07-21T12:35:35;24.70;99.90
30371;DHT22;17164;48.590;11.410;2022-07-21T12:40:36;24.60;99.90
30371;DHT22;17164;48.590;11.410;2022-07-21T12:43:15;24.60;99.90
30371;DHT22;17164;48.590;11.410;2022-07-21T12:48:16;24.90;99.90
30371;DHT22;17164;48.590;11.410;2022-07-21T12:50:42;25.00;99.90
30371;DHT22;17164;48.590;11.410;2022-07-21T12:53:09;25.10;99.90
30371;DHT22;17164;48.590;11.410;2022-07-21T12:55:36;25.10;99.90
30371;DHT22;17164;48.590;11.410;2022-07-21T12:58:02;25.20;99.90
30371;DHT22;17164;48.590;11.410;2022-07-21T13:00:29;25.30;99.90
30371;DHT22;17164;48.590;11.410;2022-07-21T13:02:56;25.40;99.90
30371;DHT22;17164;48.590;11.410;2022-07-21T13:05:23;25.60;99.90
30371;DHT22;17164;48.590;11.410;2022-07-21T13:07:49;25.80;99.90
30371;DHT22;17164;48.590;11.410;2022-07-21T13:10:16;26.00;99.90
30371;DHT22;17164;48.590;11.410;2022-07-21T13:12:42;26.00;99.90
30371;DHT22;17164;48.590;11.410;2022-07-21T13:15:09;25.90;99.90
30371;DHT22;17164;48.590;11.410;2022-07-21T13:17:35;25.90;99.90
30371;DHT22;17164;48.590;11.410;2022-07-21T13:20:01;25.90;99.90
30371;DHT22;17164;48.590;11.410;2022-07-21T13:22:27;25.80;99.90
30371;DHT22;17164;48.590;11.410;2022-07-21T13:24:55;25.90;99.90
30371;DHT22;17164;48.590;11.410;2022-07-21T13:27:20;25.90;99.90
30371;DHT22;17164;48.590;11.410;2022-07-21T13:29:46;26.10;99.90
30371;DHT22;17164;48.590;11.410;2022-07-21T13:32:12;26.20;99.90
30371;DHT22;17164;48.590;11.410;2022-07-21T13:34:37;26.10;99.90
30371;DHT22;17164;48.590;11.410;2022-07-21T13:37:03;26.20;99.90
30371;DHT22;17164;48.590;11.410;2022-07-21T13:39:29;26.20;99.90
30371;DHT22;17164;48.590;11.410;2022-07-21T13:41:56;26.30;99.90
30371;DHT22;17164;48.590;11.410;2022-07-21T13:44:22;26.50;99.90
30371;DHT22;17164;48.590;11.410;2022-07-21T13:46:48;26.60;99.90
30371;DHT22;17164;48.590;11.410;2022-07-21T13:49:14;26.60;99.90
30371;DHT22;17164;48.590;11.410;2022-07-21T13:51:40;26.60;99.90
30371;DHT22;17164;48.590;11.410;2022-07-21T13:54:05;26.60;99.90
30371;DHT22;17164;48.590;11.410;2022-07-21T13:56:31;26.70;99.90
30371;DHT22;17164;48.590;11.410;2022-07-21T13:58:57;26.90;99.40
30371;DHT22;17164;48.590;11.410;2022-07-21T14:01:23;27.00;99.20
30371;DHT22;17164;48.590;11.410;2022-07-21T14:03:50;27.10;98.50
30371;DHT22;17164;48.590;11.410;2022-07-21T14:06:17;27.10;97.90
30371;DHT22;17164;48.590;11.410;2022-07-21T14:08:43;27.00;98.70
30371;DHT22;17164;48.590;11.410;2022-07-21T14:11:09;27.10;97.90
30371;DHT22;17164;48.590;11.410;2022-07-21T14:13:35;27.30;96.70
30371;DHT22;17164;48.590;11.410;2022-07-21T14:16:01;27.40;96.50
30371;DHT22;17164;48.590;11.410;2022-07-21T14:18:28;27.40;95.10
30371;DHT22;17164;48.590;11.410;2022-07-21T14:20:53;27.40;96.20
30371;DHT22;17164;48.590;11.410;2022-07-21T14:23:22;27.50;96.70
30371;DHT22;17164;48.590;11.410;2022-07-21T14:25:50;27.60;96.00
30371;DHT22;17164;48.590;11.410;2022-07-21T14:28:16;27.80;95.00
30371;DHT22;17164;48.590;11.410;2022-07-21T14:30:42;27.90;95.30
30371;DHT22;17164;48.590;11.410;2022-07-21T14:33:08;28.00;93.40
30371;DHT22;17164;48.590;11.410;2022-07-21T14:35:34;28.00;93.90
30371;DHT22;17164;48.590;11.410;2022-07-21T14:38:00;28.10;92.40
30371;DHT22;17164;48.590;11.410;2022-07-21T14:40:25;28.00;91.90
30371;DHT22;17164;48.590;11.410;2022-07-21T14:42:51;27.80;91.80
30371;DHT22;17164;48.590;11.410;2022-07-21T14:45:19;27.70;92.50
30371;DHT22;17164;48.590;11.410;2022-07-21T14:47:45;27.80;93.00
30371;DHT22;17164;48.590;11.410;2022-07-21T14:50:14;27.90;93.20
30371;DHT22;17164;48.590;11.410;2022-07-21T14:52:41;28.10;91.90
30371;DHT22;17164;48.590;11.410;2022-07-21T14:55:08;28.30;90.40
30371;DHT22;17164;48.590;11.410;2022-07-21T14:57:34;28.30;90.50
30371;DHT22;17164;48.590;11.410;2022-07-21T15:00:01;28.30;90.30
30371;DHT22;17164;48.590;11.410;2022-07-21T15:02:27;28.40;88.30
30371;DHT22;17164;48.590;11.410;2022-07-21T15:04:52;28.40;87.20
30371;DHT22;17164;48.590;11.410;2022-07-21T15:07:18;28.50;90.60
30371;DHT22;17164;48.590;11.410;2022-07-21T15:09:44;28.60;90.90
30371;DHT22;17164;48.590;11.410;2022-07-21T15:12:10;28.60;91.40
30371;DHT22;17164;48.590;11.410;2022-07-21T15:14:37;28.70;91.20
30371;DHT22;17164;48.590;11.410;2022-07-21T15:17:03;28.90;91.10
30371;DHT22;17164;48.590;11.410;2022-07-21T15:19:29;28.90;91.00
30371;DHT22;17164;48.590;11.410;2022-07-21T15:21:55;28.90;91.20
30371;DHT22;17164;48.590;11.410;2022-07-21T15:24:22;29.00;90.80
30371;DHT22;17164;48.590;11.410;2022-07-21T15:26:48;29.00;90.80
30371;DHT22;17164;48.590;11.410;2022-07-21T15:29:14;29.00;90.10
30371;DHT22;17164;48.590;11.410;2022-07-21T15:31:40;28.90;90.10
30371;DHT22;17164;48.590;11.410;2022-07-21T15:34:06;28.60;90.90
30371;DHT22;17164;48.590;11.410;2022-07-21T15:36:31;28.40;91.30
30371;DHT22;17164;48.590;11.410;2022-07-21T15:38:58;28.50;90.60
30371;DHT22;17164;48.590;11.410;2022-07-21T15:41:24;28.60;91.60
30371;DHT22;17164;48.590;11.410;2022-07-21T15:43:50;28.60;90.80
30371;DHT22;17164;48.590;11.410;2022-07-21T15:46:16;28.80;91.30
30371;DHT22;17164;48.590;11.410;2022-07-21T15:48:42;28.90;90.10
30371;DHT22;17164;48.590;11.410;2022-07-21T15:51:08;29.10;87.80
30371;DHT22;17164;48.590;11.410;2022-07-21T15:53:34;29.10;87.70
30371;DHT22;17164;48.590;11.410;2022-07-21T15:56:05;29.20;88.50
30371;DHT22;17164;48.590;11.410;2022-07-21T15:58:31;29.30;88.30
30371;DHT22;17164;48.590;11.410;2022-07-21T16:00:57;29.30;86.30
30371;DHT22;17164;48.590;11.410;2022-07-21T16:03:23;29.30;85.10
30371;DHT22;17164;48.590;11.410;2022-07-21T16:05:49;29.30;86.10